sensor_id;sensor_type;location;lat;lon;timestamp;temperature;humidity
16287;DHT22;8251;53.568;10.018;2023-05-08T00:00:35;14.50;67.00
16287;DHT22;8251;53.568;10.018;2023-05-08T00:03:03;14.40;67.00
16287;DHT22;8251;53.568;10.018;2023-05-08T00:05:30;14.30;67.00
16287;DHT22;8251;53.568;10.018;2023-05-08T00:07:57;14.40;67.00
16287;DHT22;8251;53.568;10.018;2023-05-08T00:10:26;14.40;66.90
16287;DHT22;8251;53.568;10.018;2023-05-08T00:12:53;14.40;66.80
16287;DHT22;8251;53.568;10.018;2023-05-08T00:15:20;14.40;66.80
16287;DHT22;8251;53.568;10.018;2023-05-08T00:17:48;14.30;66.70
16287;DHT22;8251;53.568;10.018;2023-05-08T00:20:15;14.20;66.70
16287;DHT22;8251;53.568;10.018;2023-05-08T00:22:42;14.20;67.00
16287;DHT22;8251;53.568;10.018;2023-05-08T00:25:09;14.20;67.10
16287;DHT22;8251;53.568;10.018;2023-05-08T00:27:36;14.20;67.20
16287;DHT22;8251;53.568;10.018;2023-05-08T00:30:04;14.10;67.10
16287;DHT22;8251;53.568;10.018;2023-05-08T00:32:31;14.10;67.10
16287;DHT22;8251;53.568;10.018;2023-05-08T00:34:59;14.10;67.10
16287;DHT22;8251;53.568;10.018;2023-05-08T00:37:26;14.00;67.00
16287;DHT22;8251;53.568;10.018;2023-05-08T00:39:53;14.00;67.10
16287;DHT22;8251;53.568;10.018;2023-05-08T00:42:20;14.00;66.90
16287;DHT22;8251;53.568;10.018;2023-05-08T00:44:47;14.00;66.70
16287;DHT22;8251;53.568;10.018;2023-05-08T00:47:14;14.00;66.90
16287;DHT22;8251;53.568;10.018;2023-05-08T00:49:41;14.00;66.90
16287;DHT22;8251;53.568;10.018;2023-05-08T00:52:10;14.00;66.80
16287;DHT22;8251;53.568;10.018;2023-05-08T00:54:37;14.00;66.60
16287;DHT22;8251;53.568;10.018;2023-05-08T00:57:06;14.00;66.70
16287;DHT22;8251;53.568;10.018;2023-05-08T00:59:34;14.00;66.40
16287;DHT22;8251;53.568;10.018;2023-05-08T01:02:02;13.90;66.40
16287;DHT22;8251;53.568;10.018;2023-05-08T01:04:29;13.80;66.10
16287;DHT22;8251;53.568;10.018;2023-05-08T01:06:57;13.80;66.00
16287;DHT22;8251;53.568;10.018;2023-05-08T01:09:25;13.70;66.00
16287;DHT22;8251;53.568;10.018;2023-05-08T01:11:57;13.70;66.00
16287;DHT22;8251;53.568;10.018;2023-05-08T01:14:35;13.70;65.60
16287;DHT22;8251;53.568;10.018;2023-05-08T01:17:09;13.70;65.60
16287;DHT22;8251;53.568;10.018;2023-05-08T01:19:59;13.80;65.40
16287;DHT22;8251;53.568;10.018;2023-05-08T01:22:43;13.80;65.20
16287;DHT22;8251;53.568;10.018;2023-05-08T01:25:51;13.80;65.00
16287;DHT22;8251;53.568;10.018;2023-05-08T01:28:37;13.70;65.10
16287;DHT22;8251;53.568;10.018;2023-05-08T01:31:14;13.70;65.80
16287;DHT22;8251;53.568;10.018;2023-05-08T01:33:48;13.70;64.80
16287;DHT22;8251;53.568;10.018;2023-05-08T01:36:28;13.70;64.60
16287;DHT22;8251;53.568;10.018;2023-05-08T01:39:03;13.70;64.70
16287;DHT22;8251;53.568;10.018;2023-05-08T01:41:33;13.70;64.70
16287;DHT22;8251;53.568;10.018;2023-05-08T01:44:10;13.60;64.60
16287;DHT22;8251;53.568;10.018;2023-05-08T01:46:38;13.60;64.80
16287;DHT22;8251;53.568;10.018;2023-05-08T01:49:08;13.60;64.60
16287;DHT22;8251;53.568;10.018;2023-05-08T01:51:39;13.60;64.80
16287;DHT22;8251;53.568;10.018;2023-05-08T01:54:10;13.50;64.80
16287;DHT22;8251;53.568;10.018;2023-05-08T01:56:39;13.50;64.70
16287;DHT22;8251;53.568;10.018;2023-05-08T01:59:09;13.50;64.80
16287;DHT22;8251;53.568;10.018;2023-05-08T02:01:38;13.50;65.00
16287;DHT22;8251;53.568;10.018;2023-05-08T02:04:07;13.40;65.10
16287;DHT22;8251;53.568;10.018;2023-05-08T02:06:37;13.40;65.00
16287;DHT22;8251;53.568;10.018;2023-05-08T02:09:06;13.40;65.20
16287;DHT22;8251;53.568;10.018;2023-05-08T02:11:35;13.40;65.20
16287;DHT22;8251;53.568;10.018;2023-05-08T02:14:04;13.40;65.40
16287;DHT22;8251;53.568;10.018;2023-05-08T02:16:31;13.40;65.20
16287;DHT22;8251;53.568;10.018;2023-05-08T02:18:59;13.40;65.40
16287;DHT22;8251;53.568;10.018;2023-05-08T02:21:30;13.40;65.40
16287;DHT22;8251;53.568;10.018;2023-05-08T02:23:57;13.30;65.50
16287;DHT22;8251;53.568;10.018;2023-05-08T02:26:25;13.30;65.70
16287;DHT22;8251;53.568;10.018;2023-05-08T02:28:54;13.30;65.70
16287;DHT22;8251;53.568;10.018;2023-05-08T02:31:23;13.30;65.70
16287;DHT22;8251;53.568;10.018;2023-05-08T02:33:51;13.30;65.80
16287;DHT22;8251;53.568;10.018;2023-05-08T02:36:19;13.30;65.90
16287;DHT22;8251;53.568;10.018;2023-05-08T02:38:51;13.30;65.90
16287;DHT22;8251;53.568;10.018;2023-05-08T02:41:22;13.30;66.00
16287;DHT22;8251;53.568;10.018;2023-05-08T02:43:49;13.30;66.20
16287;DHT22;8251;53.568;10.018;2023-05-08T02:46:19;13.30;66.40
16287;DHT22;8251;53.568;10.018;2023-05-08T02:48:54;13.30;66.30
16287;DHT22;8251;53.568;10.018;2023-05-08T02:51:26;13.30;66.50
16287;DHT22;8251;53.568;10.018;2023-05-08T02:53:59;13.20;66.60
16287;DHT22;8251;53.568;10.018;2023-05-08T02:56:35;13.20;66.80
16287;DHT22;8251;53.568;10.018;2023-05-08T02:59:12;13.10;66.80
16287;DHT22;8251;53.568;10.018;2023-05-08T03:01:47;13.10;67.00
16287;DHT22;8251;53.568;10.018;2023-05-08T03:04:21;13.10;67.10
16287;DHT22;8251;53.568;10.018;2023-05-08T03:06:51;13.10;67.10
16287;DHT22;8251;53.568;10.018;2023-05-08T03:09:22;13.00;67.20
16287;DHT22;8251;53.568;10.018;2023-05-08T03:11:59;13.00;67.20
16287;DHT22;8251;53.568;10.018;2023-05-08T03:14:29;13.00;67.30
16287;DHT22;8251;53.568;10.018;2023-05-08T03:16:58;12.90;67.50
16287;DHT22;8251;53.568;10.018;2023-05-08T03:19:29;12.90;67.60
16287;DHT22;8251;53.568;10.018;2023-05-08T03:21:58;12.90;67.60
16287;DHT22;8251;53.568;10.018;2023-05-08T03:24:29;12.90;67.70
16287;DHT22;8251;53.568;10.018;2023-05-08T03:26:57;12.90;67.80
16287;DHT22;8251;53.568;10.018;2023-05-08T03:29:25;12.80;67.70
16287;DHT22;8251;53.568;10.018;2023-05-08T03:31:53;12.80;68.70
16287;DHT22;8251;53.568;10.018;2023-05-08T03:34:22;12.80;67.90
16287;DHT22;8251;53.568;10.018;2023-05-08T03:36:50;12.80;68.70
16287;DHT22;8251;53.568;10.018;2023-05-08T03:39:17;12.70;68.00
16287;DHT22;8251;53.568;10.018;2023-05-08T03:41:46;12.70;68.00
16287;DHT22;8251;53.568;10.018;2023-05-08T03:44:14;12.70;68.10
16287;DHT22;8251;53.568;10.018;2023-05-08T03:46:42;12.70;68.20
16287;DHT22;8251;53.568;10.018;2023-05-08T03:49:11;12.60;68.40
16287;DHT22;8251;53.568;10.018;2023-05-08T03:51:38;12.60;68.60
16287;DHT22;8251;53.568;10.018;2023-05-08T03:54:05;12.50;68.80
16287;DHT22;8251;53.568;10.018;2023-05-08T03:56:33;12.50;69.00
16287;DHT22;8251;53.568;10.018;2023-05-08T03:59:08;12.50;69.00
16287;DHT22;8251;53.568;10.018;2023-05-08T04:01:46;12.50;69.00
16287;DHT22;8251;53.568;10.018;2023-05-08T04:04:17;12.50;69.10
16287;DHT22;8251;53.568;10.018;2023-05-08T04:06:49;12.40;69.30
16287;DHT22;8251;53.568;10.018;2023-05-08T04:09:25;12.40;69.40
16287;DHT22;8251;53.568;10.018;2023-05-08T04:12:01;12.40;69.60
16287;DHT22;8251;53.568;10.018;2023-05-08T04:14:34;12.40;69.50
16287;DHT22;8251;53.568;10.018;2023-05-08T04:17:06;12.40;69.30
16287;DHT22;8251;53.568;10.018;2023-05-08T04:19:38;12.30;69.30
16287;DHT22;8251;53.568;10.018;2023-05-08T04:22:09;12.30;68.70
16287;DHT22;8251;53.568;10.018;2023-05-08T04:24:41;12.40;69.50
16287;DHT22;8251;53.568;10.018;2023-05-08T04:27:11;12.40;69.40
16287;DHT22;8251;53.568;10.018;2023-05-08T04:29:40;12.30;69.40
16287;DHT22;8251;53.568;10.018;2023-05-08T04:32:08;12.30;69.50
16287;DHT22;8251;53.568;10.018;2023-05-08T04:34:36;12.30;69.70
16287;DHT22;8251;53.568;10.018;2023-05-08T04:37:03;12.20;69.70
16287;DHT22;8251;53.568;10.018;2023-05-08T04:39:31;12.20;69.90
16287;DHT22;8251;53.568;10.018;2023-05-08T04:41:58;12.20;69.90
16287;DHT22;8251;53.568;10.018;2023-05-08T04:44:31;12.20;70.10
16287;DHT22;8251;53.568;10.018;2023-05-08T04:47:05;12.10;70.00
16287;DHT22;8251;53.568;10.018;2023-05-08T04:49:34;12.20;70.10
16287;DHT22;8251;53.568;10.018;2023-05-08T04:52:01;12.20;70.00
16287;DHT22;8251;53.568;10.018;2023-05-08T04:54:30;12.30;70.00
16287;DHT22;8251;53.568;10.018;2023-05-08T04:57:02;12.30;70.00
16287;DHT22;8251;53.568;10.018;2023-05-08T04:59:31;12.40;69.70
16287;DHT22;8251;53.568;10.018;2023-05-08T05:02:05;12.40;69.50
16287;DHT22;8251;53.568;10.018;2023-05-08T05:04:36;12.30;69.50
16287;DHT22;8251;53.568;10.018;2023-05-08T05:07:03;12.40;69.60
16287;DHT22;8251;53.568;10.018;2023-05-08T05:09:30;12.40;69.50
16287;DHT22;8251;53.568;10.018;2023-05-08T05:12:04;12.30;69.40
16287;DHT22;8251;53.568;10.018;2023-05-08T05:14:34;12.40;69.60
16287;DHT22;8251;53.568;10.018;2023-05-08T05:17:05;12.40;69.60
16287;DHT22;8251;53.568;10.018;2023-05-08T05:19:32;12.50;69.40
16287;DHT22;8251;53.568;10.018;2023-05-08T05:21:59;12.50;69.40
16287;DHT22;8251;53.568;10.018;2023-05-08T05:24:26;12.50;69.10
16287;DHT22;8251;53.568;10.018;2023-05-08T05:26:53;12.50;68.90
16287;DHT22;8251;53.568;10.018;2023-05-08T05:29:20;12.50;67.90
16287;DHT22;8251;53.568;10.018;2023-05-08T05:31:47;12.60;68.60
16287;DHT22;8251;53.568;10.018;2023-05-08T05:34:16;12.50;68.40
16287;DHT22;8251;53.568;10.018;2023-05-08T05:36:42;12.50;68.60
16287;DHT22;8251;53.568;10.018;2023-05-08T05:39:09;12.50;68.60
16287;DHT22;8251;53.568;10.018;2023-05-08T05:41:36;12.60;68.70
16287;DHT22;8251;53.568;10.018;2023-05-08T05:44:03;12.60;68.20
16287;DHT22;8251;53.568;10.018;2023-05-08T05:46:31;12.70;68.00
16287;DHT22;8251;53.568;10.018;2023-05-08T05:48:58;12.70;68.10
16287;DHT22;8251;53.568;10.018;2023-05-08T05:51:26;12.70;67.90
16287;DHT22;8251;53.568;10.018;2023-05-08T05:53:53;12.70;67.70
16287;DHT22;8251;53.568;10.018;2023-05-08T05:56:21;12.80;67.80
16287;DHT22;8251;53.568;10.018;2023-05-08T05:58:48;12.70;67.80
16287;DHT22;8251;53.568;10.018;2023-05-08T06:01:16;12.70;67.80
16287;DHT22;8251;53.568;10.018;2023-05-08T06:03:43;12.80;68.00
16287;DHT22;8251;53.568;10.018;2023-05-08T06:06:10;12.80;68.30
16287;DHT22;8251;53.568;10.018;2023-05-08T06:08:39;12.80;67.70
16287;DHT22;8251;53.568;10.018;2023-05-08T06:11:06;12.90;67.20
16287;DHT22;8251;53.568;10.018;2023-05-08T06:13:33;13.00;67.40
16287;DHT22;8251;53.568;10.018;2023-05-08T06:16:01;13.10;67.30
16287;DHT22;8251;53.568;10.018;2023-05-08T06:18:28;13.20;67.00
16287;DHT22;8251;53.568;10.018;2023-05-08T06:20:55;13.30;66.30
16287;DHT22;8251;53.568;10.018;2023-05-08T06:23:23;13.20;66.50
16287;DHT22;8251;53.568;10.018;2023-05-08T06:25:51;13.20;66.70
16287;DHT22;8251;53.568;10.018;2023-05-08T06:28:18;13.40;66.70
16287;DHT22;8251;53.568;10.018;2023-05-08T06:30:47;13.60;66.50
16287;DHT22;8251;53.568;10.018;2023-05-08T06:33:14;13.90;65.80
16287;DHT22;8251;53.568;10.018;2023-05-08T06:35:45;14.20;64.60
16287;DHT22;8251;53.568;10.018;2023-05-08T06:38:12;14.20;63.70
16287;DHT22;8251;53.568;10.018;2023-05-08T06:40:41;14.20;63.90
16287;DHT22;8251;53.568;10.018;2023-05-08T06:43:10;14.40;64.20
16287;DHT22;8251;53.568;10.018;2023-05-08T06:45:37;14.80;63.40
16287;DHT22;8251;53.568;10.018;2023-05-08T06:48:04;15.00;62.10
16287;DHT22;8251;53.568;10.018;2023-05-08T06:50:31;15.10;62.30
16287;DHT22;8251;53.568;10.018;2023-05-08T06:52:58;15.20;61.90
16287;DHT22;8251;53.568;10.018;2023-05-08T06:55:25;15.30;61.70
16287;DHT22;8251;53.568;10.018;2023-05-08T06:57:53;15.30;61.30
16287;DHT22;8251;53.568;10.018;2023-05-08T07:00:24;15.40;61.10
16287;DHT22;8251;53.568;10.018;2023-05-08T07:02:51;15.40;61.00
16287;DHT22;8251;53.568;10.018;2023-05-08T07:05:18;15.30;61.20
16287;DHT22;8251;53.568;10.018;2023-05-08T07:07:46;15.20;61.90
16287;DHT22;8251;53.568;10.018;2023-05-08T07:10:18;15.20;61.30
16287;DHT22;8251;53.568;10.018;2023-05-08T07:12:47;15.10;61.70
16287;DHT22;8251;53.568;10.018;2023-05-08T07:15:13;15.00;61.70
16287;DHT22;8251;53.568;10.018;2023-05-08T07:17:42;14.90;62.10
16287;DHT22;8251;53.568;10.018;2023-05-08T07:20:09;14.90;62.40
16287;DHT22;8251;53.568;10.018;2023-05-08T07:22:37;14.90;62.60
16287;DHT22;8251;53.568;10.018;2023-05-08T07:25:04;15.00;62.80
16287;DHT22;8251;53.568;10.018;2023-05-08T07:27:31;15.10;61.70
16287;DHT22;8251;53.568;10.018;2023-05-08T07:29:58;15.40;62.10
16287;DHT22;8251;53.568;10.018;2023-05-08T07:32:28;15.80;61.70
16287;DHT22;8251;53.568;10.018;2023-05-08T07:34:57;16.30;61.00
16287;DHT22;8251;53.568;10.018;2023-05-08T07:37:24;16.90;59.20
16287;DHT22;8251;53.568;10.018;2023-05-08T07:39:51;17.50;57.80
16287;DHT22;8251;53.568;10.018;2023-05-08T07:42:18;18.10;56.10
16287;DHT22;8251;53.568;10.018;2023-05-08T07:44:45;18.60;54.80
16287;DHT22;8251;53.568;10.018;2023-05-08T07:47:13;19.00;53.80
16287;DHT22;8251;53.568;10.018;2023-05-08T07:49:39;19.40;53.60
16287;DHT22;8251;53.568;10.018;2023-05-08T07:52:08;19.80;52.70
16287;DHT22;8251;53.568;10.018;2023-05-08T07:54:35;20.10;50.70
16287;DHT22;8251;53.568;10.018;2023-05-08T07:57:02;20.60;50.30
16287;DHT22;8251;53.568;10.018;2023-05-08T07:59:29;21.20;49.20
16287;DHT22;8251;53.568;10.018;2023-05-08T08:01:56;21.60;48.20
16287;DHT22;8251;53.568;10.018;2023-05-08T08:04:23;21.80;47.90
16287;DHT22;8251;53.568;10.018;2023-05-08T08:06:50;21.90;47.90
16287;DHT22;8251;53.568;10.018;2023-05-08T08:09:18;21.90;47.90
16287;DHT22;8251;53.568;10.018;2023-05-08T08:11:45;21.80;46.90
16287;DHT22;8251;53.568;10.018;2023-05-08T08:14:12;21.90;47.30
16287;DHT22;8251;53.568;10.018;2023-05-08T08:16:39;22.10;46.70
16287;DHT22;8251;53.568;10.018;2023-05-08T08:19:11;22.50;46.10
16287;DHT22;8251;53.568;10.018;2023-05-08T08:21:44;22.50;45.40
16287;DHT22;8251;53.568;10.018;2023-05-08T08:24:16;22.40;45.50
16287;DHT22;8251;53.568;10.018;2023-05-08T08:26:46;22.40;45.60
16287;DHT22;8251;53.568;10.018;2023-05-08T08:29:14;22.50;45.60
16287;DHT22;8251;53.568;10.018;2023-05-08T08:31:41;22.50;45.60
16287;DHT22;8251;53.568;10.018;2023-05-08T08:34:07;22.70;45.20
16287;DHT22;8251;53.568;10.018;2023-05-08T08:36:34;22.90;45.30
16287;DHT22;8251;53.568;10.018;2023-05-08T08:39:01;23.00;44.40
16287;DHT22;8251;53.568;10.018;2023-05-08T08:41:28;23.00;45.00
16287;DHT22;8251;53.568;10.018;2023-05-08T08:43:57;23.10;45.20
16287;DHT22;8251;53.568;10.018;2023-05-08T08:46:25;23.10;44.60
16287;DHT22;8251;53.568;10.018;2023-05-08T08:48:54;23.10;44.80
16287;DHT22;8251;53.568;10.018;2023-05-08T08:51:27;23.10;44.90
16287;DHT22;8251;53.568;10.018;2023-05-08T08:54:02;23.00;44.70
16287;DHT22;8251;53.568;10.018;2023-05-08T08:56:31;22.70;45.00
16287;DHT22;8251;53.568;10.018;2023-05-08T08:59:01;22.30;45.60
16287;DHT22;8251;53.568;10.018;2023-05-08T09:01:29;22.10;46.50
16287;DHT22;8251;53.568;10.018;2023-05-08T09:04:00;21.80;46.70
16287;DHT22;8251;53.568;10.018;2023-05-08T09:06:28;21.50;47.10
16287;DHT22;8251;53.568;10.018;2023-05-08T09:08:57;21.30;47.40
16287;DHT22;8251;53.568;10.018;2023-05-08T09:11:28;21.20;48.10
16287;DHT22;8251;53.568;10.018;2023-05-08T09:13:55;21.40;48.30
16287;DHT22;8251;53.568;10.018;2023-05-08T09:16:24;21.70;47.40
16287;DHT22;8251;53.568;10.018;2023-05-08T09:18:53;22.00;46.90
16287;DHT22;8251;53.568;10.018;2023-05-08T09:21:20;22.00;47.30
16287;DHT22;8251;53.568;10.018;2023-05-08T09:23:54;21.90;47.20
16287;DHT22;8251;53.568;10.018;2023-05-08T09:26:29;21.90;47.30
16287;DHT22;8251;53.568;10.018;2023-05-08T09:29:10;21.80;47.10
16287;DHT22;8251;53.568;10.018;2023-05-08T09:31:40;21.70;47.20
16287;DHT22;8251;53.568;10.018;2023-05-08T09:34:08;21.60;47.30
16287;DHT22;8251;53.568;10.018;2023-05-08T09:36:36;21.40;47.50
16287;DHT22;8251;53.568;10.018;2023-05-08T09:39:09;21.30;47.60
16287;DHT22;8251;53.568;10.018;2023-05-08T09:41:36;21.20;47.90
16287;DHT22;8251;53.568;10.018;2023-05-08T09:44:05;21.10;48.20
16287;DHT22;8251;53.568;10.018;2023-05-08T09:46:33;20.90;48.40
16287;DHT22;8251;53.568;10.018;2023-05-08T09:49:04;20.80;48.80
16287;DHT22;8251;53.568;10.018;2023-05-08T09:51:31;20.80;48.80
16287;DHT22;8251;53.568;10.018;2023-05-08T09:53:58;20.80;48.70
16287;DHT22;8251;53.568;10.018;2023-05-08T09:56:36;20.90;48.40
16287;DHT22;8251;53.568;10.018;2023-05-08T09:59:04;21.00;47.90
16287;DHT22;8251;53.568;10.018;2023-05-08T10:01:48;21.30;48.10
16287;DHT22;8251;53.568;10.018;2023-05-08T10:04:17;21.60;47.50
16287;DHT22;8251;53.568;10.018;2023-05-08T10:06:56;22.00;46.70
16287;DHT22;8251;53.568;10.018;2023-05-08T10:09:23;22.40;45.10
16287;DHT22;8251;53.568;10.018;2023-05-08T10:11:52;22.80;45.60
16287;DHT22;8251;53.568;10.018;2023-05-08T10:14:20;23.00;44.20
16287;DHT22;8251;53.568;10.018;2023-05-08T10:16:49;22.90;44.30
16287;DHT22;8251;53.568;10.018;2023-05-08T10:19:21;23.00;44.10
16287;DHT22;8251;53.568;10.018;2023-05-08T10:21:51;23.20;43.80
16287;DHT22;8251;53.568;10.018;2023-05-08T10:24:19;23.40;43.30
16287;DHT22;8251;53.568;10.018;2023-05-08T10:26:54;23.30;43.60
16287;DHT22;8251;53.568;10.018;2023-05-08T10:29:30;23.40;43.60
16287;DHT22;8251;53.568;10.018;2023-05-08T10:31:58;23.80;43.30
16287;DHT22;8251;53.568;10.018;2023-05-08T10:34:30;24.20;42.60
16287;DHT22;8251;53.568;10.018;2023-05-08T10:36:58;24.80;42.40
16287;DHT22;8251;53.568;10.018;2023-05-08T10:39:26;25.20;41.20
16287;DHT22;8251;53.568;10.018;2023-05-08T10:41:54;25.70;40.80
16287;DHT22;8251;53.568;10.018;2023-05-08T10:44:22;26.10;39.60
16287;DHT22;8251;53.568;10.018;2023-05-08T10:46:56;26.50;39.20
16287;DHT22;8251;53.568;10.018;2023-05-08T10:49:34;26.50;37.60
16287;DHT22;8251;53.568;10.018;2023-05-08T10:52:13;26.60;38.40
16287;DHT22;8251;53.568;10.018;2023-05-08T10:54:57;26.70;37.90
16287;DHT22;8251;53.568;10.018;2023-05-08T10:57:30;26.70;38.30
16287;DHT22;8251;53.568;10.018;2023-05-08T10:59:58;26.70;37.70
16287;DHT22;8251;53.568;10.018;2023-05-08T11:02:26;26.70;37.30
16287;DHT22;8251;53.568;10.018;2023-05-08T11:05:13;26.70;37.20
16287;DHT22;8251;53.568;10.018;2023-05-08T11:07:52;26.80;36.80
16287;DHT22;8251;53.568;10.018;2023-05-08T11:10:20;26.70;36.70
16287;DHT22;8251;53.568;10.018;2023-05-08T11:12:48;26.50;36.70
16287;DHT22;8251;53.568;10.018;2023-05-08T11:15:15;26.20;36.90
16287;DHT22;8251;53.568;10.018;2023-05-08T11:17:52;26.00;36.90
16287;DHT22;8251;53.568;10.018;2023-05-08T11:20:37;25.80;37.30
16287;DHT22;8251;53.568;10.018;2023-05-08T11:23:22;25.80;36.60
16287;DHT22;8251;53.568;10.018;2023-05-08T11:25:58;25.70;36.70
16287;DHT22;8251;53.568;10.018;2023-05-08T11:28:26;25.80;37.10
16287;DHT22;8251;53.568;10.018;2023-05-08T11:30:54;26.00;37.30
16287;DHT22;8251;53.568;10.018;2023-05-08T11:33:21;26.10;36.80
16287;DHT22;8251;53.568;10.018;2023-05-08T11:35:54;26.30;35.80
16287;DHT22;8251;53.568;10.018;2023-05-08T11:38:25;26.50;35.60
16287;DHT22;8251;53.568;10.018;2023-05-08T11:40:57;26.60;35.70
16287;DHT22;8251;53.568;10.018;2023-05-08T11:46:21;26.70;33.90
16287;DHT22;8251;53.568;10.018;2023-05-08T11:48:59;26.90;34.90
16287;DHT22;8251;53.568;10.018;2023-05-08T11:51:34;27.30;33.10
16287;DHT22;8251;53.568;10.018;2023-05-08T11:54:10;27.30;33.20
16287;DHT22;8251;53.568;10.018;2023-05-08T11:56:38;27.20;33.10
16287;DHT22;8251;53.568;10.018;2023-05-08T11:59:06;27.40;33.50
16287;DHT22;8251;53.568;10.018;2023-05-08T12:01:34;27.50;32.70
16287;DHT22;8251;53.568;10.018;2023-05-08T12:04:03;27.70;32.60
16287;DHT22;8251;53.568;10.018;2023-05-08T12:06:33;27.90;33.10
16287;DHT22;8251;53.568;10.018;2023-05-08T12:09:01;28.10;31.80
16287;DHT22;8251;53.568;10.018;2023-05-08T12:11:29;28.20;31.30
16287;DHT22;8251;53.568;10.018;2023-05-08T12:13:58;28.40;31.30
16287;DHT22;8251;53.568;10.018;2023-05-08T12:16:25;28.30;31.20
16287;DHT22;8251;53.568;10.018;2023-05-08T12:18:52;28.10;30.90
16287;DHT22;8251;53.568;10.018;2023-05-08T12:21:22;28.10;31.40
16287;DHT22;8251;53.568;10.018;2023-05-08T12:23:50;27.90;30.90
16287;DHT22;8251;53.568;10.018;2023-05-08T12:26:19;28.00;30.30
16287;DHT22;8251;53.568;10.018;2023-05-08T12:28:53;28.00;30.60
16287;DHT22;8251;53.568;10.018;2023-05-08T12:31:21;28.10;30.10
16287;DHT22;8251;53.568;10.018;2023-05-08T12:33:48;28.20;30.20
16287;DHT22;8251;53.568;10.018;2023-05-08T12:36:15;28.20;30.00
16287;DHT22;8251;53.568;10.018;2023-05-08T12:38:42;28.30;30.10
16287;DHT22;8251;53.568;10.018;2023-05-08T12:41:13;28.30;30.30
16287;DHT22;8251;53.568;10.018;2023-05-08T12:43:45;28.20;30.00
16287;DHT22;8251;53.568;10.018;2023-05-08T12:46:13;28.10;30.00
16287;DHT22;8251;53.568;10.018;2023-05-08T12:48:42;27.90;30.50
16287;DHT22;8251;53.568;10.018;2023-05-08T12:51:10;27.80;31.30
16287;DHT22;8251;53.568;10.018;2023-05-08T12:53:37;27.80;31.20
16287;DHT22;8251;53.568;10.018;2023-05-08T12:56:04;27.60;30.00
16287;DHT22;8251;53.568;10.018;2023-05-08T12:58:33;27.30;30.10
16287;DHT22;8251;53.568;10.018;2023-05-08T13:01:05;27.00;30.80
16287;DHT22;8251;53.568;10.018;2023-05-08T13:03:35;26.50;31.40
16287;DHT22;8251;53.568;10.018;2023-05-08T13:06:03;26.20;32.30
16287;DHT22;8251;53.568;10.018;2023-05-08T13:08:34;26.00;32.90
16287;DHT22;8251;53.568;10.018;2023-05-08T13:11:03;26.00;33.00
16287;DHT22;8251;53.568;10.018;2023-05-08T13:13:34;26.00;33.10
16287;DHT22;8251;53.568;10.018;2023-05-08T13:16:02;26.00;33.70
16287;DHT22;8251;53.568;10.018;2023-05-08T13:18:29;26.00;34.00
16287;DHT22;8251;53.568;10.018;2023-05-08T13:20:57;26.00;33.00
16287;DHT22;8251;53.568;10.018;2023-05-08T13:23:24;25.80;33.10
16287;DHT22;8251;53.568;10.018;2023-05-08T13:25:51;25.80;33.60
16287;DHT22;8251;53.568;10.018;2023-05-08T13:28:17;25.80;33.60
16287;DHT22;8251;53.568;10.018;2023-05-08T13:30:46;25.90;33.30
16287;DHT22;8251;53.568;10.018;2023-05-08T13:33:13;26.00;33.20
16287;DHT22;8251;53.568;10.018;2023-05-08T13:35:40;26.00;33.30
16287;DHT22;8251;53.568;10.018;2023-05-08T13:38:07;26.10;33.30
16287;DHT22;8251;53.568;10.018;2023-05-08T13:40:34;26.00;33.20
16287;DHT22;8251;53.568;10.018;2023-05-08T13:43:01;26.00;33.00
16287;DHT22;8251;53.568;10.018;2023-05-08T13:45:28;25.80;32.90
16287;DHT22;8251;53.568;10.018;2023-05-08T13:47:58;25.90;33.40
16287;DHT22;8251;53.568;10.018;2023-05-08T13:50:25;25.90;33.20
16287;DHT22;8251;53.568;10.018;2023-05-08T13:52:52;25.90;33.60
16287;DHT22;8251;53.568;10.018;2023-05-08T13:55:19;26.00;33.40
16287;DHT22;8251;53.568;10.018;2023-05-08T13:57:47;26.00;33.40
16287;DHT22;8251;53.568;10.018;2023-05-08T14:00:14;26.00;33.90
16287;DHT22;8251;53.568;10.018;2023-05-08T14:02:42;26.10;34.00
16287;DHT22;8251;53.568;10.018;2023-05-08T14:05:10;26.10;33.90
16287;DHT22;8251;53.568;10.018;2023-05-08T14:07:37;26.00;33.60
16287;DHT22;8251;53.568;10.018;2023-05-08T14:10:04;26.00;33.60
16287;DHT22;8251;53.568;10.018;2023-05-08T14:12:32;26.00;33.50
16287;DHT22;8251;53.568;10.018;2023-05-08T14:15:04;25.80;33.10
16287;DHT22;8251;53.568;10.018;2023-05-08T14:17:32;25.70;33.40
16287;DHT22;8251;53.568;10.018;2023-05-08T14:19:59;25.60;33.70
16287;DHT22;8251;53.568;10.018;2023-05-08T14:22:29;25.40;33.60
16287;DHT22;8251;53.568;10.018;2023-05-08T14:24:56;25.50;33.60
16287;DHT22;8251;53.568;10.018;2023-05-08T14:27:23;25.30;33.40
16287;DHT22;8251;53.568;10.018;2023-05-08T14:29:50;25.30;34.10
16287;DHT22;8251;53.568;10.018;2023-05-08T14:32:18;25.40;34.20
16287;DHT22;8251;53.568;10.018;2023-05-08T14:34:47;25.50;34.40
16287;DHT22;8251;53.568;10.018;2023-05-08T14:37:14;25.60;34.30
16287;DHT22;8251;53.568;10.018;2023-05-08T14:39:43;25.50;34.20
16287;DHT22;8251;53.568;10.018;2023-05-08T14:42:10;25.60;34.30
16287;DHT22;8251;53.568;10.018;2023-05-08T14:44:37;25.50;33.70
16287;DHT22;8251;53.568;10.018;2023-05-08T14:47:04;25.50;33.80
16287;DHT22;8251;53.568;10.018;2023-05-08T14:49:31;25.40;33.40
16287;DHT22;8251;53.568;10.018;2023-05-08T14:51:58;25.40;34.00
16287;DHT22;8251;53.568;10.018;2023-05-08T14:54:27;25.40;33.70
16287;DHT22;8251;53.568;10.018;2023-05-08T14:56:55;25.30;33.50
16287;DHT22;8251;53.568;10.018;2023-05-08T14:59:22;25.10;33.60
16287;DHT22;8251;53.568;10.018;2023-05-08T15:01:49;25.00;33.60
16287;DHT22;8251;53.568;10.018;2023-05-08T15:04:16;25.00;34.00
16287;DHT22;8251;53.568;10.018;2023-05-08T15:06:43;25.00;33.90
16287;DHT22;8251;53.568;10.018;2023-05-08T15:09:10;25.00;34.20
16287;DHT22;8251;53.568;10.018;2023-05-08T15:11:37;25.00;34.30
16287;DHT22;8251;53.568;10.018;2023-05-08T15:14:06;25.00;33.80
16287;DHT22;8251;53.568;10.018;2023-05-08T15:16:33;25.00;34.00
16287;DHT22;8251;53.568;10.018;2023-05-08T15:19:00;24.80;33.40
16287;DHT22;8251;53.568;10.018;2023-05-08T15:21:29;24.70;33.40
16287;DHT22;8251;53.568;10.018;2023-05-08T15:23:56;24.70;33.20
16287;DHT22;8251;53.568;10.018;2023-05-08T15:26:23;24.70;33.50
16287;DHT22;8251;53.568;10.018;2023-05-08T15:28:50;24.70;33.40
16287;DHT22;8251;53.568;10.018;2023-05-08T15:31:18;24.70;34.10
16287;DHT22;8251;53.568;10.018;2023-05-08T15:33:45;24.70;34.20
16287;DHT22;8251;53.568;10.018;2023-05-08T15:36:13;24.70;33.40
16287;DHT22;8251;53.568;10.018;2023-05-08T15:38:40;24.70;33.70
16287;DHT22;8251;53.568;10.018;2023-05-08T15:41:07;24.60;32.90
16287;DHT22;8251;53.568;10.018;2023-05-08T15:43:37;24.60;33.10
16287;DHT22;8251;53.568;10.018;2023-05-08T15:46:04;24.50;33.20